createdAt,value
2018-07-10T00:02:48.764Z,99.90
2018-07-10T00:05:46.985Z,99.90
2018-07-10T00:09:01.426Z,99.90
2018-07-10T00:11:32.556Z,99.90
2018-07-10T00:14:02.087Z,99.90
2018-07-10T00:16:31.409Z,99.90
2018-07-10T00:21:29.803Z,99.90
2018-07-10T00:23:59.154Z,99.90
2018-07-10T00:26:29.035Z,99.90
2018-07-10T00:28:58.361Z,99.90
2018-07-10T00:31:27.700Z,99.90
2018-07-10T00:33:57.051Z,99.90
2018-07-10T00:36:26.413Z,99.90
2018-07-10T00:39:04.159Z,99.90
2018-07-10T00:41:34.689Z,99.90
2018-07-10T00:44:04.894Z,99.90
2018-07-10T00:46:35.229Z,99.90
2018-07-10T00:49:04.621Z,99.90
2018-07-10T00:51:35.736Z,99.90
2018-07-10T00:56:33.969Z,99.90
2018-07-10T00:59:04.849Z,99.90
2018-07-10T01:01:34.825Z,99.90
2018-07-10T01:04:04.160Z,99.90
2018-07-10T01:06:33.596Z,99.90
2018-07-10T01:09:03.035Z,99.90
2018-07-10T01:11:32.446Z,99.90
2018-07-10T01:14:01.835Z,99.90
2018-07-10T01:16:36.206Z,99.90
2018-07-10T01:19:07.995Z,99.90
2018-07-10T01:21:37.375Z,99.90
2018-07-10T01:24:06.751Z,99.90
2018-07-10T01:26:38.676Z,99.90
2018-07-10T01:29:16.982Z,99.90
2018-07-10T01:31:47.656Z,99.90
2018-07-10T01:34:17.014Z,99.90
2018-07-10T01:36:46.483Z,99.90
2018-07-10T01:39:15.808Z,99.90
2018-07-10T01:41:45.176Z,99.90
2018-07-10T01:44:14.640Z,99.90
2018-07-10T01:46:43.984Z,99.90
2018-07-10T01:49:13.348Z,99.90
2018-07-10T01:51:42.686Z,99.90
2018-07-10T01:54:12.089Z,99.90
2018-07-10T01:56:41.472Z,99.90
2018-07-10T01:59:10.799Z,99.90
2018-07-10T02:01:40.143Z,99.90
2018-07-10T02:04:09.682Z,99.90
2018-07-10T02:06:39.139Z,99.90
2018-07-10T02:09:08.519Z,99.90
2018-07-10T02:11:37.887Z,99.90
2018-07-10T02:14:07.299Z,99.90
2018-07-10T02:16:36.688Z,99.90
2018-07-10T02:19:06.035Z,99.90
2018-07-10T02:21:35.433Z,99.90
2018-07-10T02:24:04.831Z,99.90
2018-07-10T02:26:34.201Z,99.90
2018-07-10T02:29:03.619Z,99.90
2018-07-10T02:31:32.994Z,99.90
2018-07-10T02:34:02.341Z,99.90
2018-07-10T02:36:31.695Z,99.90
2018-07-10T02:39:01.089Z,99.90
2018-07-10T02:41:30.832Z,99.90
2018-07-10T02:44:02.505Z,99.90
2018-07-10T02:46:34.226Z,99.90
2018-07-10T02:49:07.467Z,99.90
2018-07-10T02:51:37.163Z,99.90
2018-07-10T02:54:06.560Z,99.90
2018-07-10T02:56:36.438Z,99.90
2018-07-10T02:59:05.840Z,99.90
2018-07-10T03:01:35.167Z,99.90
2018-07-10T03:04:04.598Z,99.90
2018-07-10T03:06:34.702Z,99.90
2018-07-10T03:09:05.192Z,99.90
2018-07-10T03:11:35.498Z,99.90
2018-07-10T03:14:06.771Z,99.90
2018-07-10T03:16:36.132Z,99.90
2018-07-10T03:24:03.692Z,99.90
2018-07-10T03:26:33.127Z,99.90
2018-07-10T03:29:02.458Z,99.90
2018-07-10T03:31:32.055Z,99.90
2018-07-10T03:34:01.398Z,99.90
2018-07-10T03:36:30.843Z,99.90
2018-07-10T03:39:00.980Z,99.90
2018-07-10T03:41:30.371Z,99.90
2018-07-10T03:43:59.696Z,99.90
2018-07-10T03:46:30.327Z,99.90
2018-07-10T03:48:59.695Z,99.90
2018-07-10T03:51:29.643Z,99.90
2018-07-10T03:53:59.352Z,99.90
2018-07-10T03:56:28.788Z,99.90
2018-07-10T03:58:59.935Z,99.90
2018-07-10T04:01:33.084Z,99.90
2018-07-10T04:04:02.434Z,99.90
2018-07-10T04:06:31.823Z,99.90
2018-07-10T04:09:02.708Z,99.90
2018-07-10T04:14:00.950Z,99.90
2018-07-10T04:16:31.002Z,99.90
2018-07-10T04:19:00.410Z,99.90
2018-07-10T04:21:33.147Z,99.90
2018-07-10T04:24:10.187Z,99.90
2018-07-10T04:26:43.086Z,99.90
2018-07-10T04:29:17.539Z,99.90
2018-07-10T04:31:53.856Z,99.90
2018-07-10T04:34:24.122Z,99.90
2018-07-10T04:36:57.036Z,99.90
2018-07-10T04:39:26.422Z,99.90
2018-07-10T04:42:31.182Z,99.90
2018-07-10T04:45:05.847Z,99.90
2018-07-10T04:47:52.819Z,99.90
2018-07-10T04:50:36.114Z,99.90
2018-07-10T04:53:11.386Z,99.90
2018-07-10T04:55:42.127Z,99.90
2018-07-10T04:58:18.690Z,99.90
2018-07-10T05:00:57.010Z,99.90
2018-07-10T05:03:28.043Z,99.90
2018-07-10T05:05:59.409Z,99.90
2018-07-10T05:08:28.703Z,99.90
2018-07-10T05:10:58.100Z,99.90
2018-07-10T05:13:28.186Z,99.90
2018-07-10T05:15:59.907Z,99.90
2018-07-10T05:18:29.486Z,99.90
2018-07-10T05:20:59.971Z,99.90
2018-07-10T05:23:29.867Z,99.90
2018-07-10T05:25:59.298Z,99.90
2018-07-10T05:28:28.655Z,99.90
2018-07-10T05:31:01.768Z,99.90
2018-07-10T05:33:31.230Z,99.90
2018-07-10T05:36:02.063Z,99.90
2018-07-10T05:38:37.542Z,99.90
2018-07-10T05:41:07.394Z,99.90
2018-07-10T05:43:40.359Z,99.90
2018-07-10T05:46:09.738Z,99.90
2018-07-10T05:48:39.201Z,99.90
2018-07-10T05:51:08.603Z,99.90
2018-07-10T05:53:37.902Z,99.90
2018-07-10T05:56:07.276Z,99.90
2018-07-10T05:58:36.647Z,99.90
2018-07-10T06:01:06.193Z,99.90
2018-07-10T06:03:35.504Z,99.90
2018-07-10T06:06:05.180Z,99.90
2018-07-10T06:08:34.491Z,99.90
2018-07-10T06:11:03.887Z,99.90
2018-07-10T06:13:33.236Z,99.90
2018-07-10T06:16:02.552Z,99.90
2018-07-10T06:18:31.952Z,99.90
2018-07-10T06:21:01.339Z,99.90
2018-07-10T06:23:38.619Z,99.90
2018-07-10T06:26:07.950Z,99.90
2018-07-10T06:28:37.574Z,99.90
2018-07-10T06:31:11.706Z,99.90
2018-07-10T06:33:51.151Z,99.90
2018-07-10T06:36:26.755Z,99.90
2018-07-10T06:39:15.009Z,99.90
2018-07-10T06:41:51.811Z,99.90
2018-07-10T06:44:21.781Z,99.90
2018-07-10T06:46:55.103Z,99.90
2018-07-10T06:49:31.930Z,99.90
2018-07-10T06:52:05.611Z,99.90
2018-07-10T06:54:43.013Z,99.90
2018-07-10T06:57:12.783Z,99.90
2018-07-10T06:59:42.137Z,99.90
2018-07-10T07:02:12.103Z,99.90
2018-07-10T07:04:41.619Z,99.90
2018-07-10T07:07:10.966Z,99.90
2018-07-10T07:09:40.347Z,99.90
2018-07-10T07:12:09.676Z,99.90
2018-07-10T07:14:39.067Z,99.90
2018-07-10T07:17:08.380Z,99.90
2018-07-10T07:19:37.699Z,99.90
2018-07-10T07:22:07.023Z,99.90
2018-07-10T07:24:36.515Z,99.90
2018-07-10T07:27:05.940Z,99.90
2018-07-10T07:29:35.306Z,99.90
2018-07-10T07:32:05.019Z,99.90
2018-07-10T07:34:34.367Z,99.90
2018-07-10T07:37:03.746Z,99.90
2018-07-10T07:39:33.880Z,99.90
2018-07-10T07:42:03.204Z,99.90
2018-07-10T07:44:32.626Z,99.90
2018-07-10T07:47:01.975Z,99.90
2018-07-10T07:49:32.162Z,99.90
2018-07-10T07:52:01.639Z,99.90
2018-07-10T07:56:59.928Z,99.90
2018-07-10T07:59:29.289Z,99.90
2018-07-10T08:01:58.699Z,99.90
2018-07-10T08:04:28.072Z,99.90
2018-07-10T08:06:57.430Z,99.90
2018-07-10T08:09:26.745Z,99.90
2018-07-10T08:11:56.117Z,99.90
2018-07-10T08:14:25.472Z,99.90
2018-07-10T08:16:55.264Z,99.90
2018-07-10T08:19:24.643Z,99.90
2018-07-10T08:21:54.054Z,99.90
2018-07-10T08:24:24.562Z,99.90
2018-07-10T08:26:56.215Z,99.90
2018-07-10T08:29:26.241Z,99.90
2018-07-10T08:31:55.636Z,99.90
2018-07-10T08:34:26.183Z,99.90
2018-07-10T08:36:56.002Z,99.90
2018-07-10T08:39:26.359Z,99.90
2018-07-10T08:41:55.723Z,99.90
2018-07-10T08:44:25.050Z,99.90
2018-07-10T08:46:56.165Z,99.90
2018-07-10T08:49:30.012Z,99.90
2018-07-10T08:51:59.377Z,99.90
2018-07-10T08:54:28.739Z,99.90
2018-07-10T08:56:58.090Z,99.90
2018-07-10T08:59:27.490Z,99.90
2018-07-10T09:01:56.919Z,99.90
2018-07-10T09:04:26.303Z,99.90
2018-07-10T09:06:55.716Z,99.90
2018-07-10T09:09:25.052Z,99.90
2018-07-10T09:11:54.507Z,99.90
2018-07-10T09:14:23.851Z,99.90
2018-07-10T09:16:53.170Z,99.90
2018-07-10T09:19:26.620Z,99.90
2018-07-10T09:22:04.438Z,99.90
2018-07-10T09:24:35.950Z,99.90
2018-07-10T09:27:08.582Z,99.90
2018-07-10T09:29:38.968Z,99.90
2018-07-10T09:32:09.252Z,99.90
2018-07-10T09:34:38.844Z,99.90
2018-07-10T09:38:13.226Z,99.90
2018-07-10T09:40:43.503Z,99.90
2018-07-10T09:43:12.892Z,99.90
2018-07-10T09:45:42.211Z,99.90
2018-07-10T09:48:11.634Z,99.90
2018-07-10T09:50:41.021Z,99.90
2018-07-10T09:53:10.374Z,99.90
2018-07-10T09:55:39.754Z,99.90
2018-07-10T09:58:09.166Z,99.90
2018-07-10T10:00:43.810Z,99.90
2018-07-10T10:03:13.286Z,99.90
2018-07-10T10:05:44.208Z,99.90
2018-07-10T10:08:13.721Z,99.90
2018-07-10T10:10:43.055Z,99.90
2018-07-10T10:13:12.431Z,99.90
2018-07-10T10:15:42.139Z,99.90
2018-07-10T10:18:11.591Z,99.90
2018-07-10T10:20:41.991Z,99.90
2018-07-10T10:23:13.286Z,99.90
2018-07-10T10:25:46.552Z,99.90
2018-07-10T10:33:15.618Z,99.90
2018-07-10T10:35:45.029Z,99.90
2018-07-10T10:38:14.807Z,99.90
2018-07-10T10:40:45.286Z,99.90
2018-07-10T10:43:14.648Z,99.90
2018-07-10T10:45:44.817Z,99.90
2018-07-10T10:48:14.529Z,99.90
2018-07-10T10:50:49.954Z,99.90
2018-07-10T10:53:19.675Z,99.90
2018-07-10T10:58:19.427Z,99.90
2018-07-10T11:00:48.866Z,99.90
2018-07-10T11:03:18.203Z,99.90
2018-07-10T11:05:47.748Z,99.90
2018-07-10T11:08:17.076Z,99.90
2018-07-10T11:10:47.253Z,99.90
2018-07-10T11:13:17.300Z,99.90
2018-07-10T11:15:48.655Z,99.90
2018-07-10T11:18:47.992Z,99.90
2018-07-10T11:21:27.821Z,99.90
2018-07-10T11:23:58.343Z,99.90
2018-07-10T11:26:39.630Z,99.90
2018-07-10T11:29:09.298Z,99.90
2018-07-10T11:31:38.918Z,99.90
2018-07-10T11:39:09.747Z,99.90
2018-07-10T11:41:43.602Z,99.90
2018-07-10T11:44:12.932Z,99.90
2018-07-10T11:46:42.302Z,99.90
2018-07-10T11:49:11.678Z,99.90
2018-07-10T11:51:41.065Z,99.90
2018-07-10T11:54:10.924Z,99.90
2018-07-10T11:56:40.282Z,99.90
2018-07-10T11:59:09.691Z,99.90
2018-07-10T12:01:39.079Z,99.90
2018-07-10T12:04:08.481Z,99.90
2018-07-10T12:06:49.592Z,99.90
2018-07-10T12:09:18.962Z,99.90
2018-07-10T12:11:48.352Z,99.90
2018-07-10T12:14:17.739Z,99.90
2018-07-10T12:16:47.079Z,99.90
2018-07-10T12:19:16.606Z,99.90
2018-07-10T12:21:46.120Z,99.90
2018-07-10T12:24:15.473Z,99.90
2018-07-10T12:26:44.820Z,99.90
2018-07-10T12:29:14.184Z,99.90
2018-07-10T12:31:43.655Z,99.90
2018-07-10T12:34:13.021Z,99.90
2018-07-10T12:36:42.397Z,99.90
2018-07-10T12:39:11.833Z,99.90
2018-07-10T12:44:10.159Z,99.90
2018-07-10T12:46:39.485Z,99.90
2018-07-10T12:49:08.859Z,99.90
2018-07-10T12:51:38.338Z,99.90
2018-07-10T12:54:07.705Z,99.90
2018-07-10T12:59:06.008Z,99.90
2018-07-10T13:01:35.389Z,99.90
2018-07-10T13:06:33.744Z,99.90
2018-07-10T13:09:03.211Z,99.90
2018-07-10T13:11:32.616Z,99.90
2018-07-10T13:14:02.019Z,99.90
2018-07-10T13:16:31.478Z,99.90
2018-07-10T13:19:00.799Z,99.90
2018-07-10T13:21:30.162Z,99.90
2018-07-10T13:23:59.492Z,99.90
2018-07-10T13:26:28.811Z,99.90
2018-07-10T13:28:58.121Z,99.90
2018-07-10T13:31:27.512Z,99.90
2018-07-10T13:33:56.928Z,99.90
2018-07-10T13:36:26.328Z,99.90
2018-07-10T13:38:55.754Z,99.90
2018-07-10T13:41:25.126Z,99.90
2018-07-10T13:43:54.488Z,99.90
2018-07-10T13:46:23.890Z,99.90
2018-07-10T13:48:54.373Z,99.90
2018-07-10T13:51:23.768Z,99.90
2018-07-10T13:53:53.087Z,99.90
2018-07-10T13:56:22.447Z,99.90
2018-07-10T13:58:51.983Z,99.90
2018-07-10T14:01:21.479Z,99.90
2018-07-10T14:03:50.875Z,99.90
2018-07-10T14:06:20.387Z,99.90
2018-07-10T14:08:49.781Z,99.90
2018-07-10T14:11:19.325Z,99.90
2018-07-10T14:13:48.763Z,99.90
2018-07-10T14:16:18.090Z,99.90
2018-07-10T14:18:51.886Z,99.90
2018-07-10T14:21:21.871Z,99.90
2018-07-10T14:23:51.275Z,99.90
2018-07-10T14:26:20.709Z,99.90
2018-07-10T14:28:50.216Z,99.90
2018-07-10T14:31:19.572Z,99.90
2018-07-10T14:33:49.424Z,99.90
2018-07-10T14:36:18.799Z,99.90
2018-07-10T14:38:48.187Z,99.90
2018-07-10T14:41:17.765Z,99.90
2018-07-10T14:43:48.050Z,99.90
2018-07-10T14:46:21.608Z,99.90
2018-07-10T14:49:00.383Z,99.90
2018-07-10T14:51:37.392Z,99.90
2018-07-10T14:54:06.743Z,99.90
2018-07-10T14:56:36.708Z,99.90
2018-07-10T14:59:06.348Z,99.90
2018-07-10T15:01:35.721Z,99.90
2018-07-10T15:04:05.100Z,99.90
2018-07-10T15:06:34.523Z,99.90
2018-07-10T15:11:34.228Z,99.90
2018-07-10T15:14:08.547Z,99.90
2018-07-10T15:16:43.179Z,99.90
2018-07-10T15:19:12.649Z,99.90
2018-07-10T15:21:42.051Z,99.90
2018-07-10T15:24:11.556Z,99.90
2018-07-10T15:26:40.996Z,99.90
2018-07-10T15:29:10.436Z,99.90
2018-07-10T15:31:39.797Z,99.90
2018-07-10T15:34:09.119Z,99.90
2018-07-10T15:36:38.493Z,99.90
2018-07-10T15:41:36.842Z,99.90
2018-07-10T15:44:06.860Z,99.90
2018-07-10T15:46:36.263Z,99.90
2018-07-10T15:49:05.678Z,99.90
2018-07-10T15:51:35.063Z,99.90
2018-07-10T15:54:04.668Z,99.90
2018-07-10T15:56:34.038Z,99.90
2018-07-10T15:59:03.454Z,99.90
2018-07-10T16:01:32.820Z,99.90
2018-07-10T16:04:02.167Z,99.90
2018-07-10T16:06:33.284Z,99.90
2018-07-10T16:09:16.057Z,99.90
2018-07-10T16:11:45.876Z,99.90
2018-07-10T16:14:15.227Z,99.90
2018-07-10T16:16:45.303Z,99.90
2018-07-10T16:19:16.595Z,99.90
2018-07-10T16:21:54.075Z,99.90
2018-07-10T16:24:23.818Z,99.90
2018-07-10T16:26:54.168Z,99.90
2018-07-10T16:29:24.235Z,99.90
2018-07-10T16:31:57.433Z,99.90
2018-07-10T16:34:27.029Z,99.90
2018-07-10T16:36:56.618Z,99.90
2018-07-10T16:39:26.026Z,99.90
2018-07-10T16:44:30.541Z,99.90
2018-07-10T16:47:06.066Z,99.90
2018-07-10T16:49:41.196Z,99.90
2018-07-10T16:52:30.288Z,99.80
2018-07-10T16:54:59.730Z,98.90
2018-07-10T16:57:29.250Z,97.10
2018-07-10T16:59:59.106Z,97.50
2018-07-10T17:02:28.963Z,97.50
2018-07-10T17:04:58.931Z,97.30
2018-07-10T17:07:28.354Z,97.50
2018-07-10T17:09:57.778Z,97.70
2018-07-10T17:12:27.112Z,97.30
2018-07-10T17:14:58.084Z,98.50
2018-07-10T17:17:27.806Z,98.20
2018-07-10T17:19:57.443Z,97.80
2018-07-10T17:22:26.844Z,98.00
2018-07-10T17:24:56.668Z,98.00
2018-07-10T17:27:31.379Z,98.20
2018-07-10T17:30:01.631Z,97.80
2018-07-10T17:32:31.375Z,98.10
2018-07-10T17:35:00.935Z,97.90
2018-07-10T17:40:04.861Z,97.60
2018-07-10T17:42:35.757Z,97.40
2018-07-10T17:45:05.511Z,97.40
2018-07-10T17:47:35.284Z,97.80
2018-07-10T17:50:04.879Z,97.90
2018-07-10T17:52:34.246Z,97.30
2018-07-10T17:55:03.934Z,97.30
2018-07-10T17:57:34.531Z,97.50
2018-07-10T18:00:05.537Z,97.30
2018-07-10T18:02:34.910Z,97.50
2018-07-10T18:05:04.344Z,97.70
2018-07-10T18:07:33.695Z,98.30
2018-07-10T18:10:03.063Z,98.40
2018-07-10T18:12:32.501Z,98.60
2018-07-10T18:17:30.807Z,98.90
2018-07-10T18:20:00.178Z,99.10
2018-07-10T18:22:29.527Z,99.90
2018-07-10T18:24:58.893Z,99.60
2018-07-10T18:27:28.268Z,99.90
2018-07-10T18:29:57.643Z,99.90
2018-07-10T18:32:27.010Z,99.90
2018-07-10T18:34:56.341Z,99.90
2018-07-10T18:37:25.718Z,99.90
2018-07-10T18:39:55.079Z,99.90
2018-07-10T18:42:24.700Z,99.90
2018-07-10T18:47:23.073Z,99.90
2018-07-10T18:49:53.575Z,99.90
2018-07-10T18:52:28.727Z,99.90
2018-07-10T18:54:58.762Z,99.90
2018-07-10T18:57:44.767Z,99.90
2018-07-10T19:00:17.386Z,99.90
2018-07-10T19:02:54.523Z,99.90
2018-07-10T19:05:24.382Z,99.90
2018-07-10T19:07:53.810Z,99.90
2018-07-10T19:10:23.235Z,99.90
2018-07-10T19:12:52.592Z,99.90
2018-07-10T19:15:22.030Z,99.90
2018-07-10T19:17:51.459Z,99.90
2018-07-10T19:20:20.906Z,99.90
2018-07-10T19:22:58.004Z,99.90
2018-07-10T19:25:27.363Z,99.90
2018-07-10T19:27:58.676Z,99.90
2018-07-10T19:33:00.426Z,99.90
2018-07-10T19:35:29.767Z,99.90
2018-07-10T19:37:59.182Z,99.90
2018-07-10T19:40:28.547Z,99.90
2018-07-10T19:42:58.011Z,99.90
2018-07-10T19:45:27.359Z,99.90
2018-07-10T19:47:57.635Z,99.90
2018-07-10T19:50:33.174Z,99.90
2018-07-10T19:58:36.306Z,99.90
2018-07-10T20:01:16.636Z,99.90
2018-07-10T20:03:58.889Z,99.90
2018-07-10T20:06:34.695Z,99.90
2018-07-10T20:09:08.971Z,99.90
2018-07-10T20:11:59.259Z,99.90
2018-07-10T20:14:31.556Z,99.90
2018-07-10T20:17:09.095Z,99.90
2018-07-10T20:19:47.724Z,99.90
2018-07-10T20:22:27.258Z,99.90
2018-07-10T20:25:16.009Z,99.90
2018-07-10T20:27:51.750Z,99.90
2018-07-10T20:30:28.353Z,99.90
2018-07-10T20:33:26.242Z,99.90
2018-07-10T20:35:56.299Z,99.90
2018-07-10T20:38:25.789Z,99.90
2018-07-10T20:40:55.571Z,99.90
2018-07-10T20:43:24.942Z,99.90
2018-07-10T20:45:55.789Z,99.90
2018-07-10T20:49:06.660Z,99.90
2018-07-10T20:51:40.026Z,99.90
2018-07-10T20:54:16.984Z,99.90
2018-07-10T20:56:59.016Z,99.90
2018-07-10T20:59:39.736Z,99.90
2018-07-10T21:02:30.962Z,99.90
2018-07-10T21:05:07.556Z,99.90
2018-07-10T21:10:13.391Z,99.90
2018-07-10T21:12:53.427Z,99.90
2018-07-10T21:16:38.664Z,99.90
2018-07-10T21:19:20.699Z,99.90
2018-07-10T21:21:59.447Z,99.90
2018-07-10T21:24:36.531Z,99.90
2018-07-10T21:27:07.992Z,99.90
2018-07-10T21:30:26.416Z,99.90
2018-07-10T21:33:16.610Z,99.90
2018-07-10T21:35:50.974Z,99.90
2018-07-10T21:38:44.375Z,99.90
2018-07-10T21:41:31.647Z,99.90
2018-07-10T21:44:13.856Z,99.90
2018-07-10T21:46:57.063Z,99.90
2018-07-10T21:49:48.252Z,99.90
2018-07-10T21:52:17.695Z,99.90
2018-07-10T21:54:47.079Z,99.90
2018-07-10T21:57:18.016Z,99.90
2018-07-10T21:59:55.559Z,99.90
2018-07-10T22:02:25.088Z,99.90
2018-07-10T22:04:56.023Z,99.90
2018-07-10T22:07:27.467Z,99.90
2018-07-10T22:10:04.069Z,99.90
2018-07-10T22:15:04.424Z,99.90
2018-07-10T22:17:34.215Z,99.90
2018-07-10T22:20:03.535Z,99.90
2018-07-10T22:22:33.619Z,99.90
2018-07-10T22:25:04.160Z,99.90
2018-07-10T22:27:33.597Z,99.90
2018-07-10T22:30:08.128Z,99.90
2018-07-10T22:32:45.153Z,99.90
2018-07-10T22:35:15.849Z,99.90
2018-07-10T22:37:45.265Z,99.90
2018-07-10T22:40:16.305Z,99.90
2018-07-10T22:45:14.742Z,99.90
2018-07-10T22:47:45.151Z,99.90
2018-07-10T22:50:19.092Z,99.90
2018-07-10T22:52:52.358Z,99.90
2018-07-10T22:55:25.724Z,99.90
2018-07-10T22:57:58.444Z,99.90
2018-07-10T23:00:32.664Z,99.90
2018-07-10T23:03:09.081Z,99.90
2018-07-10T23:05:38.446Z,99.90
2018-07-10T23:08:08.157Z,99.90
2018-07-10T23:10:37.544Z,99.90
2018-07-10T23:13:07.004Z,99.90
2018-07-10T23:15:36.388Z,99.90
2018-07-10T23:18:06.297Z,99.90
2018-07-10T23:20:35.770Z,99.90
2018-07-10T23:23:05.128Z,99.90
2018-07-10T23:25:34.503Z,99.90
2018-07-10T23:28:06.149Z,99.90
2018-07-10T23:30:38.913Z,99.90
2018-07-10T23:33:12.024Z,99.90
2018-07-10T23:35:42.485Z,99.90
2018-07-10T23:39:16.600Z,99.90
2018-07-10T23:42:49.947Z,99.90
2018-07-10T23:45:21.603Z,99.90
2018-07-10T23:47:53.444Z,99.90
2018-07-10T23:53:59.054Z,99.90
2018-07-10T23:56:28.434Z,99.90
2018-07-10T23:58:57.793Z,99.90
